This is the latest recevied weather packets stored in our database for station/object KM6RDV. If no packets are shown the sender has not sent any weather packets the latest 10 day(s).
| Time | Temp. | Humidity | Pressure | Rain* | Wind** | Luminosity | Snow |
|---|---|---|---|---|---|---|---|
| 1778208019 | 15.56° C | 73% | 1019.8 hPa | 0 mm | - | 26 W/m² | - |
| 1778203221 | 17.78° C | 63% | 1019.7 hPa | 0 mm | - | 245 W/m² | - |
| 1778200240 | 18.89° C | 59% | 1019.9 hPa | 0 mm | - | 443 W/m² | - |
| 1778199620 | 18.89° C | 58% | 1019.9 hPa | 0 mm | - | 480 W/m² | - |
| 1778196619 | 19.44° C | 57% | 1019.9 hPa | 0 mm | - | 659 W/m² | - |
| 1778194838 | 18.89° C | 63% | 1019.8 hPa | 0 mm | - | 756 W/m² | - |
| 1778192417 | 18.89° C | 64% | 1020 hPa | 0 mm | - | 869 W/m² | - |
| 1778181021 | 17.22° C | 70% | 1022.1 hPa | 0 mm | - | 1003 W/m² | - |
| 1778174416 | 14.44° C | 76% | 1022.6 hPa | 0 mm | - | 553 W/m² | - |
| 1778173220 | 13.89° C | 79% | 1022.5 hPa | 0 mm | - | 349 W/m² | - |
| 1778170837 | 13.33° C | 81% | 1022.5 hPa | 0 mm | - | 226 W/m² | - |
| 1778166019 | 12.78° C | 84% | 1022.4 hPa | 0 mm | - | 85 W/m² | - |
| 1778165421 | 12.78° C | 84% | 1022.6 hPa | 0 mm | - | 72 W/m² | - |
| 1778164237 | 12.78° C | 84% | 1022.4 hPa | 0 mm | - | 50 W/m² | - |
| 1778163037 | 12.78° C | 84% | 1022.3 hPa | 0 mm | - | 32 W/m² | - |
| 1778161841 | 12.78° C | 84% | 1022.1 hPa | 0 mm | - | 17 W/m² | - |
| 1778159416 | 12.78° C | 84% | 1022 hPa | 0 mm | - | 1 W/m² | - |
| 1778157022 | 12.78° C | 84% | 1021.8 hPa | 0 mm | - | 0 W/m² | - |
| 1778156439 | 12.78° C | 84% | 1022 hPa | 0 mm | - | 0 W/m² | - |
| 1778153417 | 12.78° C | 83% | 1022 hPa | 0 mm | - | 0 W/m² | - |
| 1778152820 | 12.78° C | 83% | 1022.1 hPa | 0 mm | - | 0 W/m² | - |
| 1778149219 | 12.78° C | 83% | 1022.1 hPa | 0 mm | - | 0 W/m² | - |
| 1778148620 | 12.78° C | 83% | 1021.9 hPa | 0 mm | - | 0 W/m² | - |
| 1778145017 | 13.33° C | 83% | 1022.2 hPa | 0 mm | - | 0 W/m² | - |
| 1778144416 | 13.33° C | 84% | 1022.3 hPa | 0 mm | - | 0 W/m² | - |
* Rain latest hour (hover to see other rain measurements)
** Current wind speed in m/s (hover to see current wind gust speed)